sensor_id;sensor_type;location;lat;lon;timestamp;pressure;altitude;pressure_sealevel;temperature;humidity
39455;BME280;25155;41.890;23.446;2023-08-17T00:01:59;92082.84;;;23.04;50.30
39455;BME280;25155;41.890;23.446;2023-08-17T00:04:28;92086.19;;;23.01;50.60
39455;BME280;25155;41.890;23.446;2023-08-17T00:06:55;92087.31;;;23.00;50.64
39455;BME280;25155;41.890;23.446;2023-08-17T00:09:22;92090.19;;;22.95;50.54
39455;BME280;25155;41.890;23.446;2023-08-17T00:11:50;92085.56;;;22.92;50.91
39455;BME280;25155;41.890;23.446;2023-08-17T00:14:17;92086.66;;;22.91;51.09
39455;BME280;25155;41.890;23.446;2023-08-17T00:16:44;92082.75;;;22.89;50.88
39455;BME280;25155;41.890;23.446;2023-08-17T00:19:11;92085.31;;;22.85;51.16
39455;BME280;25155;41.890;23.446;2023-08-17T00:21:40;92088.22;;;22.80;51.13
39455;BME280;25155;41.890;23.446;2023-08-17T00:24:07;92087.34;;;22.76;51.40
39455;BME280;25155;41.890;23.446;2023-08-17T00:26:35;92085.69;;;22.71;51.26
39455;BME280;25155;41.890;23.446;2023-08-17T00:29:02;92083.25;;;22.66;51.37
39455;BME280;25155;41.890;23.446;2023-08-17T00:31:29;92077.84;;;22.62;50.85
39455;BME280;25155;41.890;23.446;2023-08-17T00:33:56;92076.94;;;22.58;50.95
39455;BME280;25155;41.890;23.446;2023-08-17T00:36:24;92079.50;;;22.55;50.87
39455;BME280;25155;41.890;23.446;2023-08-17T00:38:53;92078.16;;;22.48;51.38
39455;BME280;25155;41.890;23.446;2023-08-17T00:41:20;92081.13;;;22.47;51.51
39455;BME280;25155;41.890;23.446;2023-08-17T00:43:47;92081.38;;;22.42;51.49
39455;BME280;25155;41.890;23.446;2023-08-17T00:46:14;92077.84;;;22.38;51.42
39455;BME280;25155;41.890;23.446;2023-08-17T00:48:42;92081.47;;;22.33;51.13
39455;BME280;25155;41.890;23.446;2023-08-17T00:51:10;92078.38;;;22.31;51.30
39455;BME280;25155;41.890;23.446;2023-08-17T00:53:37;92082.47;;;22.28;51.57
39455;BME280;25155;41.890;23.446;2023-08-17T00:56:06;92078.56;;;22.26;51.07
39455;BME280;25155;41.890;23.446;2023-08-17T00:58:34;92077.34;;;22.23;51.52
39455;BME280;25155;41.890;23.446;2023-08-17T01:01:02;92084.09;;;22.21;50.88
39455;BME280;25155;41.890;23.446;2023-08-17T01:03:29;92083.09;;;22.13;51.64
39455;BME280;25155;41.890;23.446;2023-08-17T01:05:57;92082.84;;;22.06;51.37
39455;BME280;25155;41.890;23.446;2023-08-17T01:08:24;92079.63;;;22.00;51.59
39455;BME280;25155;41.890;23.446;2023-08-17T01:10:59;92073.31;;;21.92;51.62
39455;BME280;25155;41.890;23.446;2023-08-17T01:13:35;92078.50;;;21.89;51.16
39455;BME280;25155;41.890;23.446;2023-08-17T01:16:06;92067.44;;;21.87;51.72
39455;BME280;25155;41.890;23.446;2023-08-17T01:18:38;92064.69;;;21.83;51.56
39455;BME280;25155;41.890;23.446;2023-08-17T01:21:10;92064.91;;;21.78;51.85
39455;BME280;25155;41.890;23.446;2023-08-17T01:23:44;92072.72;;;21.74;51.81
39455;BME280;25155;41.890;23.446;2023-08-17T01:26:12;92067.28;;;21.71;52.15
39455;BME280;25155;41.890;23.446;2023-08-17T01:28:41;92069.50;;;21.69;52.00
39455;BME280;25155;41.890;23.446;2023-08-17T01:31:12;92065.50;;;21.63;52.11
39455;BME280;25155;41.890;23.446;2023-08-17T01:33:46;92069.91;;;21.59;52.14
39455;BME280;25155;41.890;23.446;2023-08-17T01:36:20;92067.47;;;21.53;51.95
39455;BME280;25155;41.890;23.446;2023-08-17T01:38:52;92067.34;;;21.50;51.89
39455;BME280;25155;41.890;23.446;2023-08-17T01:41:22;92073.75;;;21.49;52.43
39455;BME280;25155;41.890;23.446;2023-08-17T01:43:51;92075.16;;;21.46;52.01
39455;BME280;25155;41.890;23.446;2023-08-17T01:46:19;92075.78;;;21.43;51.97
39455;BME280;25155;41.890;23.446;2023-08-17T01:48:46;92067.38;;;21.41;51.66
39455;BME280;25155;41.890;23.446;2023-08-17T01:51:17;92070.25;;;21.36;52.11
39455;BME280;25155;41.890;23.446;2023-08-17T01:53:46;92067.16;;;21.34;52.21
39455;BME280;25155;41.890;23.446;2023-08-17T01:56:14;92062.06;;;21.29;51.76
39455;BME280;25155;41.890;23.446;2023-08-17T01:58:41;92078.63;;;21.26;51.80
39455;BME280;25155;41.890;23.446;2023-08-17T02:01:08;92073.94;;;21.23;52.17
39455;BME280;25155;41.890;23.446;2023-08-17T02:03:36;92066.63;;;21.19;52.25
39455;BME280;25155;41.890;23.446;2023-08-17T02:06:03;92069.50;;;21.14;52.27
39455;BME280;25155;41.890;23.446;2023-08-17T02:08:32;92072.78;;;21.11;52.14
39455;BME280;25155;41.890;23.446;2023-08-17T02:11:00;92070.66;;;21.05;52.20
39455;BME280;25155;41.890;23.446;2023-08-17T02:13:28;92068.19;;;20.99;52.49
39455;BME280;25155;41.890;23.446;2023-08-17T02:15:56;92064.34;;;20.97;52.82
39455;BME280;25155;41.890;23.446;2023-08-17T02:18:23;92065.31;;;20.92;52.93
39455;BME280;25155;41.890;23.446;2023-08-17T02:20:50;92064.38;;;20.88;53.08
39455;BME280;25155;41.890;23.446;2023-08-17T02:23:17;92060.84;;;20.84;52.59
39455;BME280;25155;41.890;23.446;2023-08-17T02:25:45;92061.94;;;20.83;52.75
39455;BME280;25155;41.890;23.446;2023-08-17T02:28:12;92064.44;;;20.79;52.92
39455;BME280;25155;41.890;23.446;2023-08-17T02:30:41;92064.31;;;20.76;53.22
39455;BME280;25155;41.890;23.446;2023-08-17T02:33:08;92061.22;;;20.74;53.38
39455;BME280;25155;41.890;23.446;2023-08-17T02:35:35;92059.97;;;20.71;52.92
39455;BME280;25155;41.890;23.446;2023-08-17T02:38:03;92058.72;;;20.69;53.18
39455;BME280;25155;41.890;23.446;2023-08-17T02:40:30;92060.16;;;20.66;53.33
39455;BME280;25155;41.890;23.446;2023-08-17T02:42:57;92059.72;;;20.64;52.97
39455;BME280;25155;41.890;23.446;2023-08-17T02:45:24;92056.56;;;20.62;53.43
39455;BME280;25155;41.890;23.446;2023-08-17T02:47:52;92057.22;;;20.59;53.34
39455;BME280;25155;41.890;23.446;2023-08-17T02:50:20;92059.41;;;20.57;53.87
39455;BME280;25155;41.890;23.446;2023-08-17T02:52:47;92061.34;;;20.48;54.96
39455;BME280;25155;41.890;23.446;2023-08-17T02:55:14;92054.22;;;20.39;54.21
39455;BME280;25155;41.890;23.446;2023-08-17T02:57:42;92060.47;;;20.35;54.68
39455;BME280;25155;41.890;23.446;2023-08-17T03:00:09;92063.00;;;20.31;54.09
39455;BME280;25155;41.890;23.446;2023-08-17T03:02:37;92060.66;;;20.30;54.30
39455;BME280;25155;41.890;23.446;2023-08-17T03:05:06;92065.03;;;20.25;54.49
39455;BME280;25155;41.890;23.446;2023-08-17T03:07:33;92057.41;;;20.24;53.98
39455;BME280;25155;41.890;23.446;2023-08-17T03:10:00;92059.59;;;20.22;54.27
39455;BME280;25155;41.890;23.446;2023-08-17T03:12:27;92061.03;;;20.19;53.94
39455;BME280;25155;41.890;23.446;2023-08-17T03:14:55;92055.56;;;20.16;54.17
39455;BME280;25155;41.890;23.446;2023-08-17T03:17:22;92058.88;;;20.13;54.46
39455;BME280;25155;41.890;23.446;2023-08-17T03:19:49;92058.38;;;20.10;54.36
39455;BME280;25155;41.890;23.446;2023-08-17T03:22:18;92058.25;;;20.07;54.73
39455;BME280;25155;41.890;23.446;2023-08-17T03:24:45;92060.75;;;20.03;54.50
39455;BME280;25155;41.890;23.446;2023-08-17T03:27:12;92065.47;;;19.98;54.76
39455;BME280;25155;41.890;23.446;2023-08-17T03:29:40;92062.19;;;19.92;54.41
39455;BME280;25155;41.890;23.446;2023-08-17T03:32:07;92067.66;;;19.87;54.38
39455;BME280;25155;41.890;23.446;2023-08-17T03:34:34;92072.38;;;19.81;54.36
39455;BME280;25155;41.890;23.446;2023-08-17T03:37:04;92065.38;;;19.77;54.37
39455;BME280;25155;41.890;23.446;2023-08-17T03:39:33;92070.97;;;19.75;54.64
39455;BME280;25155;41.890;23.446;2023-08-17T03:42:00;92072.81;;;19.75;54.88
39455;BME280;25155;41.890;23.446;2023-08-17T03:44:27;92081.41;;;19.71;55.14
39455;BME280;25155;41.890;23.446;2023-08-17T03:46:54;92077.50;;;19.69;54.88
39455;BME280;25155;41.890;23.446;2023-08-17T03:49:22;92068.34;;;19.66;54.67
39455;BME280;25155;41.890;23.446;2023-08-17T03:51:49;92072.38;;;19.64;54.66
39455;BME280;25155;41.890;23.446;2023-08-17T03:54:17;92066.94;;;19.60;54.74
39455;BME280;25155;41.890;23.446;2023-08-17T03:56:46;92075.03;;;19.55;55.32
39455;BME280;25155;41.890;23.446;2023-08-17T03:59:14;92081.44;;;19.45;56.04
39455;BME280;25155;41.890;23.446;2023-08-17T04:01:41;92076.78;;;19.33;56.28
39455;BME280;25155;41.890;23.446;2023-08-17T04:04:08;92085.19;;;19.27;56.41
39455;BME280;25155;41.890;23.446;2023-08-17T04:06:35;92083.47;;;19.22;56.33
39455;BME280;25155;41.890;23.446;2023-08-17T04:09:05;92081.16;;;19.21;56.49
39455;BME280;25155;41.890;23.446;2023-08-17T04:11:34;92085.19;;;19.18;55.98
39455;BME280;25155;41.890;23.446;2023-08-17T04:14:04;92087.97;;;19.13;56.79
39455;BME280;25155;41.890;23.446;2023-08-17T04:16:33;92092.66;;;19.07;57.78
39455;BME280;25155;41.890;23.446;2023-08-17T04:19:00;92094.69;;;19.02;57.71
39455;BME280;25155;41.890;23.446;2023-08-17T04:21:27;92098.88;;;19.03;57.18
39455;BME280;25155;41.890;23.446;2023-08-17T04:23:54;92095.47;;;19.02;57.56
39455;BME280;25155;41.890;23.446;2023-08-17T04:26:21;92098.88;;;19.03;57.58
39455;BME280;25155;41.890;23.446;2023-08-17T04:28:49;92097.00;;;19.03;57.38
39455;BME280;25155;41.890;23.446;2023-08-17T04:31:18;92098.56;;;19.04;57.47
39455;BME280;25155;41.890;23.446;2023-08-17T04:33:45;92098.25;;;19.06;57.02
39455;BME280;25155;41.890;23.446;2023-08-17T04:36:12;92092.97;;;19.06;57.45
39455;BME280;25155;41.890;23.446;2023-08-17T04:38:39;92096.38;;;19.06;57.27
39455;BME280;25155;41.890;23.446;2023-08-17T04:41:07;92097.63;;;19.09;57.88
39455;BME280;25155;41.890;23.446;2023-08-17T04:43:34;92097.31;;;19.10;57.60
39455;BME280;25155;41.890;23.446;2023-08-17T04:46:01;92095.59;;;19.14;57.82
39455;BME280;25155;41.890;23.446;2023-08-17T04:48:29;92099.03;;;19.15;57.85
39455;BME280;25155;41.890;23.446;2023-08-17T04:50:57;92096.25;;;19.20;57.91
39455;BME280;25155;41.890;23.446;2023-08-17T04:53:24;92104.63;;;19.22;57.80
39455;BME280;25155;41.890;23.446;2023-08-17T04:55:51;92093.44;;;19.25;57.52
39455;BME280;25155;41.890;23.446;2023-08-17T04:58:19;92094.34;;;19.29;57.80
39455;BME280;25155;41.890;23.446;2023-08-17T05:00:46;92093.41;;;19.34;57.75
39455;BME280;25155;41.890;23.446;2023-08-17T05:03:14;92099.66;;;19.38;57.38
39455;BME280;25155;41.890;23.446;2023-08-17T05:05:44;92094.81;;;19.40;57.59
39455;BME280;25155;41.890;23.446;2023-08-17T05:08:11;92097.00;;;19.47;57.75
39455;BME280;25155;41.890;23.446;2023-08-17T05:10:39;92083.91;;;19.50;57.31
39455;BME280;25155;41.890;23.446;2023-08-17T05:13:06;92088.28;;;19.55;57.39
39455;BME280;25155;41.890;23.446;2023-08-17T05:15:33;92094.97;;;19.61;57.78
39455;BME280;25155;41.890;23.446;2023-08-17T05:18:00;92089.00;;;19.64;57.70
39455;BME280;25155;41.890;23.446;2023-08-17T05:20:28;92091.53;;;19.69;57.92
39455;BME280;25155;41.890;23.446;2023-08-17T05:22:56;92091.34;;;19.75;57.64
39455;BME280;25155;41.890;23.446;2023-08-17T05:25:24;92087.94;;;19.83;58.01
39455;BME280;25155;41.890;23.446;2023-08-17T05:27:52;92086.66;;;19.89;57.87
39455;BME280;25155;41.890;23.446;2023-08-17T05:30:19;92088.34;;;19.94;57.91
39455;BME280;25155;41.890;23.446;2023-08-17T05:32:47;92081.03;;;19.99;58.19
39455;BME280;25155;41.890;23.446;2023-08-17T05:35:14;92083.97;;;20.06;57.66
39455;BME280;25155;41.890;23.446;2023-08-17T05:37:41;92079.25;;;20.12;58.04
39455;BME280;25155;41.890;23.446;2023-08-17T05:40:11;92079.88;;;20.18;57.81
39455;BME280;25155;41.890;23.446;2023-08-17T05:42:38;92083.25;;;20.27;57.90
39455;BME280;25155;41.890;23.446;2023-08-17T05:45:06;92073.25;;;20.33;57.72
39455;BME280;25155;41.890;23.446;2023-08-17T05:47:33;92070.88;;;20.40;57.93
39455;BME280;25155;41.890;23.446;2023-08-17T05:50:00;92069.63;;;20.46;58.49
39455;BME280;25155;41.890;23.446;2023-08-17T05:52:28;92064.56;;;20.53;58.16
39455;BME280;25155;41.890;23.446;2023-08-17T05:54:55;92074.22;;;20.58;58.86
39455;BME280;25155;41.890;23.446;2023-08-17T05:57:23;92070.47;;;20.59;58.96
39455;BME280;25155;41.890;23.446;2023-08-17T05:59:50;92065.03;;;20.64;58.44
39455;BME280;25155;41.890;23.446;2023-08-17T06:02:17;92067.81;;;20.68;58.55
39455;BME280;25155;41.890;23.446;2023-08-17T06:04:47;92066.38;;;20.70;58.10
39455;BME280;25155;41.890;23.446;2023-08-17T06:07:14;92061.78;;;20.79;57.89
39455;BME280;25155;41.890;23.446;2023-08-17T06:09:42;92061.72;;;20.88;58.00
39455;BME280;25155;41.890;23.446;2023-08-17T06:12:09;92070.41;;;20.97;57.98
39455;BME280;25155;41.890;23.446;2023-08-17T06:14:37;92064.59;;;21.04;57.90
39455;BME280;25155;41.890;23.446;2023-08-17T06:17:04;92062.63;;;21.13;57.91
39455;BME280;25155;41.890;23.446;2023-08-17T06:19:31;92062.25;;;21.24;57.83
39455;BME280;25155;41.890;23.446;2023-08-17T06:21:59;92061.84;;;21.34;57.73
39455;BME280;25155;41.890;23.446;2023-08-17T06:24:26;92062.53;;;21.43;57.57
39455;BME280;25155;41.890;23.446;2023-08-17T06:26:53;92052.31;;;21.54;57.45
39455;BME280;25155;41.890;23.446;2023-08-17T06:29:20;92057.53;;;21.63;57.19
39455;BME280;25155;41.890;23.446;2023-08-17T06:31:49;92058.22;;;21.72;56.94
39455;BME280;25155;41.890;23.446;2023-08-17T06:34:16;92062.47;;;21.85;56.82
39455;BME280;25155;41.890;23.446;2023-08-17T06:36:56;92046.75;;;21.92;56.65
39455;BME280;25155;41.890;23.446;2023-08-17T06:39:24;92052.75;;;22.02;55.30
39455;BME280;25155;41.890;23.446;2023-08-17T06:41:51;92051.22;;;22.13;54.83
39455;BME280;25155;41.890;23.446;2023-08-17T06:44:18;92048.78;;;22.20;53.90
39455;BME280;25155;41.890;23.446;2023-08-17T06:46:46;92054.81;;;22.29;54.04
39455;BME280;25155;41.890;23.446;2023-08-17T06:49:15;92052.13;;;22.42;53.93
39455;BME280;25155;41.890;23.446;2023-08-17T06:51:43;92050.47;;;22.50;53.14
39455;BME280;25155;41.890;23.446;2023-08-17T10:37:07;91891.59;;;29.73;31.74
39455;BME280;25155;41.890;23.446;2023-08-17T10:39:34;91888.16;;;29.87;31.98
39455;BME280;25155;41.890;23.446;2023-08-17T10:42:05;91891.22;;;30.04;32.41
39455;BME280;25155;41.890;23.446;2023-08-17T10:44:40;91888.91;;;30.16;32.59
39455;BME280;25155;41.890;23.446;2023-08-17T10:47:20;91881.56;;;30.35;33.17
39455;BME280;25155;41.890;23.446;2023-08-17T10:49:49;91875.03;;;30.54;32.10
39455;BME280;25155;41.890;23.446;2023-08-17T10:52:27;91871.94;;;30.59;30.91
39455;BME280;25155;41.890;23.446;2023-08-17T10:54:55;91868.81;;;30.71;31.43
39455;BME280;25155;41.890;23.446;2023-08-17T10:57:32;91860.38;;;30.69;30.33
39455;BME280;25155;41.890;23.446;2023-08-17T11:00:22;91862.69;;;30.67;30.18
39455;BME280;25155;41.890;23.446;2023-08-17T11:02:53;91858.81;;;30.68;29.86
39455;BME280;25155;41.890;23.446;2023-08-17T11:05:38;91861.19;;;30.59;29.73
39455;BME280;25155;41.890;23.446;2023-08-17T11:08:07;91850.00;;;30.64;29.97
39455;BME280;25155;41.890;23.446;2023-08-17T11:10:36;91850.09;;;30.35;30.77
39455;BME280;25155;41.890;23.446;2023-08-17T11:13:04;91849.97;;;30.75;31.04
39455;BME280;25155;41.890;23.446;2023-08-17T11:15:36;91847.63;;;30.84;29.56
39455;BME280;25155;41.890;23.446;2023-08-17T11:18:08;91837.22;;;30.90;30.10
39455;BME280;25155;41.890;23.446;2023-08-17T11:20:36;91846.41;;;31.00;30.52
39455;BME280;25155;41.890;23.446;2023-08-17T11:23:04;91842.59;;;30.97;29.70
39455;BME280;25155;41.890;23.446;2023-08-17T11:25:37;91846.03;;;30.94;30.23
39455;BME280;25155;41.890;23.446;2023-08-17T11:28:06;91835.25;;;30.94;29.91
39455;BME280;25155;41.890;23.446;2023-08-17T11:30:34;91839.47;;;31.02;29.30
39455;BME280;25155;41.890;23.446;2023-08-17T11:33:04;91839.03;;;31.11;29.97
39455;BME280;25155;41.890;23.446;2023-08-17T11:35:31;91835.88;;;31.27;31.02
39455;BME280;25155;41.890;23.446;2023-08-17T11:37:58;91826.19;;;31.37;30.09
39455;BME280;25155;41.890;23.446;2023-08-17T11:40:26;91833.13;;;31.34;28.90
39455;BME280;25155;41.890;23.446;2023-08-17T11:42:55;91831.63;;;31.26;29.48
39455;BME280;25155;41.890;23.446;2023-08-17T11:45:23;91829.31;;;31.28;28.96
39455;BME280;25155;41.890;23.446;2023-08-17T11:47:50;91832.41;;;31.30;29.19
39455;BME280;25155;41.890;23.446;2023-08-17T11:50:18;91822.78;;;31.29;30.14
39455;BME280;25155;41.890;23.446;2023-08-17T11:52:45;91822.72;;;31.36;29.29
39455;BME280;25155;41.890;23.446;2023-08-17T11:55:16;91817.31;;;31.40;29.05
39455;BME280;25155;41.890;23.446;2023-08-17T11:57:46;91818.41;;;31.46;29.15
39455;BME280;25155;41.890;23.446;2023-08-17T12:00:19;91817.22;;;31.51;28.59
39455;BME280;25155;41.890;23.446;2023-08-17T12:02:47;91813.78;;;31.50;28.38
39455;BME280;25155;41.890;23.446;2023-08-17T12:05:19;91815.28;;;31.58;28.91
39455;BME280;25155;41.890;23.446;2023-08-17T12:07:49;91814.38;;;31.72;29.13
39455;BME280;25155;41.890;23.446;2023-08-17T12:10:17;91816.63;;;31.81;28.96
39455;BME280;25155;41.890;23.446;2023-08-17T12:12:46;91812.25;;;31.98;30.46
39455;BME280;25155;41.890;23.446;2023-08-17T12:15:13;91796.31;;;32.14;29.85
39455;BME280;25155;41.890;23.446;2023-08-17T12:17:44;91803.94;;;32.23;28.44
39455;BME280;25155;41.890;23.446;2023-08-17T12:20:16;91800.03;;;32.28;28.46
39455;BME280;25155;41.890;23.446;2023-08-17T12:22:44;91795.94;;;32.47;28.22
39455;BME280;25155;41.890;23.446;2023-08-17T12:25:11;91790.41;;;32.61;29.63
39455;BME280;25155;41.890;23.446;2023-08-17T12:27:38;91792.09;;;32.82;30.41
39455;BME280;25155;41.890;23.446;2023-08-17T12:30:11;91790.78;;;32.94;28.58
39455;BME280;25155;41.890;23.446;2023-08-17T12:32:39;91786.75;;;33.06;29.97
39455;BME280;25155;41.890;23.446;2023-08-17T12:35:08;91788.09;;;33.21;30.06
39455;BME280;25155;41.890;23.446;2023-08-17T12:37:35;91777.03;;;33.39;30.29
39455;BME280;25155;41.890;23.446;2023-08-17T12:40:02;91773.34;;;33.53;30.22
39455;BME280;25155;41.890;23.446;2023-08-17T12:42:30;91779.28;;;33.68;31.00
39455;BME280;25155;41.890;23.446;2023-08-17T12:44:57;91788.47;;;33.74;29.83
39455;BME280;25155;41.890;23.446;2023-08-17T12:47:25;91788.78;;;33.80;29.02
39455;BME280;25155;41.890;23.446;2023-08-17T12:49:52;91781.75;;;33.82;28.18
39455;BME280;25155;41.890;23.446;2023-08-17T12:52:20;91773.03;;;33.75;26.49
39455;BME280;25155;41.890;23.446;2023-08-17T12:54:47;91779.69;;;33.67;27.18
39455;BME280;25155;41.890;23.446;2023-08-17T12:57:14;91778.13;;;33.69;28.24
39455;BME280;25155;41.890;23.446;2023-08-17T12:59:41;91776.28;;;33.86;29.33
39455;BME280;25155;41.890;23.446;2023-08-17T13:02:09;91789.91;;;34.02;29.61
39455;BME280;25155;41.890;23.446;2023-08-17T13:04:36;91788.13;;;34.16;29.34
39455;BME280;25155;41.890;23.446;2023-08-17T13:07:03;91778.84;;;34.17;28.91
39455;BME280;25155;41.890;23.446;2023-08-17T13:09:32;91773.34;;;34.20;28.10
39455;BME280;25155;41.890;23.446;2023-08-17T13:11:59;91762.47;;;34.24;27.58
39455;BME280;25155;41.890;23.446;2023-08-17T13:14:26;91778.97;;;34.10;28.39
39455;BME280;25155;41.890;23.446;2023-08-17T13:16:53;91783.13;;;34.14;29.18
39455;BME280;25155;41.890;23.446;2023-08-17T13:19:20;91784.31;;;34.13;29.44
39455;BME280;25155;41.890;23.446;2023-08-17T13:21:47;91781.03;;;34.26;29.52
39455;BME280;25155;41.890;23.446;2023-08-17T13:24:14;91779.72;;;34.34;29.92
39455;BME280;25155;41.890;23.446;2023-08-17T13:26:43;91774.94;;;34.42;29.43
39455;BME280;25155;41.890;23.446;2023-08-17T13:29:10;91773.31;;;34.44;29.48
39455;BME280;25155;41.890;23.446;2023-08-17T13:31:37;91776.31;;;34.50;29.82
39455;BME280;25155;41.890;23.446;2023-08-17T13:34:04;91772.63;;;34.60;29.75
39455;BME280;25155;41.890;23.446;2023-08-17T13:36:32;91774.09;;;34.65;29.16
39455;BME280;25155;41.890;23.446;2023-08-17T13:38:59;91778.66;;;34.68;29.66
39455;BME280;25155;41.890;23.446;2023-08-17T13:41:26;91784.84;;;34.68;28.95
39455;BME280;25155;41.890;23.446;2023-08-17T13:43:55;91781.91;;;34.59;29.35
39455;BME280;25155;41.890;23.446;2023-08-17T13:46:23;91780.19;;;34.49;28.83
39455;BME280;25155;41.890;23.446;2023-08-17T13:48:50;91777.72;;;34.38;29.59
39455;BME280;25155;41.890;23.446;2023-08-17T13:51:19;91781.31;;;34.31;29.83
39455;BME280;25155;41.890;23.446;2023-08-17T13:53:46;91779.13;;;34.23;29.60
39455;BME280;25155;41.890;23.446;2023-08-17T13:56:13;91777.31;;;34.16;30.23
39455;BME280;25155;41.890;23.446;2023-08-17T13:58:40;91786.31;;;34.09;30.35
39455;BME280;25155;41.890;23.446;2023-08-17T14:01:09;91775.22;;;34.04;30.84
39455;BME280;25155;41.890;23.446;2023-08-17T14:03:37;91783.25;;;34.07;31.10
39455;BME280;25155;41.890;23.446;2023-08-17T14:06:04;91779.03;;;34.06;30.29
39455;BME280;25155;41.890;23.446;2023-08-17T14:08:31;91783.69;;;34.06;30.81
39455;BME280;25155;41.890;23.446;2023-08-17T14:10:58;91785.91;;;34.11;31.35
39455;BME280;25155;41.890;23.446;2023-08-17T14:13:26;91793.19;;;34.14;31.15
39455;BME280;25155;41.890;23.446;2023-08-17T14:15:53;91781.28;;;34.11;31.16
39455;BME280;25155;41.890;23.446;2023-08-17T14:18:23;91786.72;;;34.08;30.97
39455;BME280;25155;41.890;23.446;2023-08-17T14:20:50;91786.28;;;34.13;31.42
39455;BME280;25155;41.890;23.446;2023-08-17T14:23:17;91787.09;;;34.10;31.18
39455;BME280;25155;41.890;23.446;2023-08-17T14:25:44;91787.91;;;34.07;31.52
39455;BME280;25155;41.890;23.446;2023-08-17T14:28:11;91787.56;;;34.05;31.37
39455;BME280;25155;41.890;23.446;2023-08-17T14:30:38;91784.16;;;34.00;31.16
39455;BME280;25155;41.890;23.446;2023-08-17T14:33:05;91789.34;;;33.91;31.04
39455;BME280;25155;41.890;23.446;2023-08-17T14:35:34;91796.47;;;33.81;31.34
39455;BME280;25155;41.890;23.446;2023-08-17T14:38:01;91786.47;;;33.78;31.43
39455;BME280;25155;41.890;23.446;2023-08-17T14:40:28;91793.53;;;33.72;31.87
39455;BME280;25155;41.890;23.446;2023-08-17T14:42:55;91796.66;;;33.71;32.17
39455;BME280;25155;41.890;23.446;2023-08-17T14:45:23;91790.50;;;33.67;31.86
39455;BME280;25155;41.890;23.446;2023-08-17T14:47:50;91794.72;;;33.68;31.81
39455;BME280;25155;41.890;23.446;2023-08-17T14:50:17;91800.25;;;33.60;31.87
39455;BME280;25155;41.890;23.446;2023-08-17T14:52:46;91804.59;;;33.54;31.88
39455;BME280;25155;41.890;23.446;2023-08-17T14:55:13;91811.63;;;33.48;31.89
39455;BME280;25155;41.890;23.446;2023-08-17T14:57:40;91814.81;;;33.43;32.11
39455;BME280;25155;41.890;23.446;2023-08-17T15:00:08;91814.91;;;33.36;32.39
39455;BME280;25155;41.890;23.446;2023-08-17T15:02:36;91807.75;;;33.25;32.06
39455;BME280;25155;41.890;23.446;2023-08-17T15:05:03;91807.47;;;33.16;31.84
39455;BME280;25155;41.890;23.446;2023-08-17T15:07:31;91816.06;;;33.07;32.10
39455;BME280;25155;41.890;23.446;2023-08-17T15:09:59;91811.16;;;32.99;32.05
39455;BME280;25155;41.890;23.446;2023-08-17T15:12:26;91808.56;;;32.91;31.83
39455;BME280;25155;41.890;23.446;2023-08-17T15:14:53;91818.28;;;32.85;32.18
39455;BME280;25155;41.890;23.446;2023-08-17T15:17:20;91817.56;;;32.81;32.74
39455;BME280;25155;41.890;23.446;2023-08-17T15:19:47;91818.06;;;32.72;32.84
39455;BME280;25155;41.890;23.446;2023-08-17T15:22:15;91810.44;;;32.64;32.38
39455;BME280;25155;41.890;23.446;2023-08-17T15:24:43;91816.69;;;32.53;32.67
39455;BME280;25155;41.890;23.446;2023-08-17T15:27:12;91822.19;;;32.46;32.43
39455;BME280;25155;41.890;23.446;2023-08-17T15:29:39;91816.09;;;32.38;32.73
39455;BME280;25155;41.890;23.446;2023-08-17T15:32:06;91815.03;;;32.29;32.37
39455;BME280;25155;41.890;23.446;2023-08-17T15:34:34;91820.13;;;32.23;32.98
39455;BME280;25155;41.890;23.446;2023-08-17T15:37:01;91813.25;;;32.15;32.84
39455;BME280;25155;41.890;23.446;2023-08-17T15:39:29;91817.91;;;32.11;32.40
39455;BME280;25155;41.890;23.446;2023-08-17T15:41:56;91822.25;;;32.01;33.00
39455;BME280;25155;41.890;23.446;2023-08-17T15:44:25;91825.00;;;31.94;32.75
39455;BME280;25155;41.890;23.446;2023-08-17T15:46:52;91821.56;;;31.90;32.67
39455;BME280;25155;41.890;23.446;2023-08-17T15:51:55;91831.34;;;31.73;32.94
39455;BME280;25155;41.890;23.446;2023-08-17T15:54:22;91820.97;;;31.68;33.22
39455;BME280;25155;41.890;23.446;2023-08-17T15:56:49;91832.97;;;31.63;33.23
39455;BME280;25155;41.890;23.446;2023-08-17T15:59:16;91833.75;;;31.60;33.54
39455;BME280;25155;41.890;23.446;2023-08-17T16:01:45;91833.78;;;31.56;33.26
39455;BME280;25155;41.890;23.446;2023-08-17T16:04:13;91837.28;;;31.50;33.34
39455;BME280;25155;41.890;23.446;2023-08-17T16:06:40;91835.41;;;31.39;32.84
39455;BME280;25155;41.890;23.446;2023-08-17T16:09:09;91836.59;;;31.31;33.06
39455;BME280;25155;41.890;23.446;2023-08-17T16:11:36;91840.91;;;31.21;33.28
39455;BME280;25155;41.890;23.446;2023-08-17T16:14:04;91838.22;;;31.18;33.17
39455;BME280;25155;41.890;23.446;2023-08-17T16:16:32;91843.28;;;31.12;33.70
39455;BME280;25155;41.890;23.446;2023-08-17T16:19:01;91844.06;;;31.09;33.25
39455;BME280;25155;41.890;23.446;2023-08-17T16:21:28;91851.78;;;31.07;33.62
39455;BME280;25155;41.890;23.446;2023-08-17T16:23:55;91849.09;;;31.03;34.05
39455;BME280;25155;41.890;23.446;2023-08-17T16:26:23;91858.75;;;30.97;33.87
39455;BME280;25155;41.890;23.446;2023-08-17T16:28:50;91853.41;;;30.79;33.69
39455;BME280;25155;41.890;23.446;2023-08-17T16:31:17;91851.94;;;30.64;33.45
39455;BME280;25155;41.890;23.446;2023-08-17T16:33:44;91853.13;;;30.56;33.63
39455;BME280;25155;41.890;23.446;2023-08-17T16:36:13;91864.28;;;30.50;33.72
39455;BME280;25155;41.890;23.446;2023-08-17T16:38:40;91864.28;;;30.50;34.08
39455;BME280;25155;41.890;23.446;2023-08-17T16:41:07;91864.66;;;30.52;34.24